Latest Weather Observations for Darwin Airport

IDD60801

Issued at 4:02 pm CST Saturday 4 July 2015 (issued every 30 minutes, with the page automatically refreshed every 10 minutes)

About weather observations | Map of weather stations | Latest weather observations for NT | Other Formats
Station Details ID: 014015 Name: DARWIN AIRPORT Lat: -12.42 Lon: 130.89 Height: 30.4 m
Data from the previous 72 hours. | See also: Recent months at Darwin Airport
Date/Time
CST
Temp
°C
App
Temp
°C
Dew
Point
Rel
Hum
%
Delta-T
°C
Wind Press
QNH
hPa
Press
MSL
hPa
Rain
since 9 am
mm
Dir
 
Spd
km/h
Gust
km/h
Spd
kts
Gust
kts
04/03:30pm 29.0 26.0 12.7 36 9.6 NNW 20 26 11 14 1011.0 - 0.0
04/03:00pm 30.6 26.6 9.2 26 12.0 NNW 20 32 11 17 1010.9 1010.7 0.0
04/02:30pm 30.2 27.1 5.5 21 13.0 S 11 20 6 11 1011.6 - 0.0
04/02:00pm 30.2 25.7 4.1 19 13.4 ESE 17 32 9 17 1012.3 - 0.0
04/01:30pm 30.1 25.5 3.9 19 13.4 E 17 28 9 15 1012.7 - 0.0
04/01:00pm 30.1 25.2 4.3 19 13.3 E 19 32 10 17 1013.0 - 0.0
04/12:30pm 28.8 24.2 6.3 24 11.9 E 20 30 11 16 1013.6 - 0.0
04/12:00pm 28.2 23.0 7.3 26 11.2 E 24 33 13 18 1014.1 1013.9 0.0
04/11:30am 26.9 21.2 8.5 31 10.0 E 28 33 15 18 1014.7 - 0.0
04/11:00am 26.8 21.1 8.3 31 10.0 E 28 37 15 20 1015.0 - 0.0
04/10:30am 26.4 21.0 8.2 31 9.8 E 26 33 14 18 1015.2 - 0.0
04/10:00am 25.6 20.5 9.1 35 9.0 E 26 33 14 18 1015.6 - 0.0
04/09:30am 24.3 19.5 8.9 37 8.3 E 24 28 13 15 1015.9 - 0.0
04/09:00am 23.1 19.1 8.9 40 7.6 E 20 26 11 14 1016.0 1015.8 0.0
04/08:30am 21.9 18.3 8.4 42 7.1 E 17 22 9 12 1015.7 - 0.0
04/08:00am 20.7 18.1 9.5 48 6.0 ESE 13 17 7 9 1015.4 - 0.0
04/07:30am 19.7 16.8 9.5 51 5.4 ESE 15 17 8 9 1015.0 - 0.0
04/07:00am 19.6 16.2 9.2 51 5.5 E 17 19 9 10 1014.7 - 0.0
04/06:30am 18.5 16.3 10.7 60 4.2 E 13 15 7 8 1014.6 - 0.0
04/06:00am 19.3 16.7 10.6 57 4.7 E 15 17 8 9 1014.6 1014.4 0.0
04/05:30am 18.3 16.4 11.8 66 3.6 E 13 17 7 9 1014.6 - 0.0
04/04:30am 19.7 17.9 10.9 57 4.8 E 11 13 6 7 1014.0 - 0.0
04/04:00am 21.3 19.0 10.3 49 6.0 SE 13 15 7 8 1014.0 - 0.0
04/03:30am 21.8 19.4 10.2 47 6.3 SE 13 15 7 8 1014.1 - 0.0
04/03:00am 21.5 19.8 11.2 52 5.7 SSE 11 13 6 7 1014.3 1014.1 0.0
04/02:30am 20.4 19.1 12.6 61 4.4 SSE 11 13 6 7 1014.5 - 0.0
04/02:00am 19.3 18.9 14.1 72 3.0 SSE 9 11 5 6 1014.5 - 0.0
04/01:30am 19.9 19.5 14.2 69 3.3 SE 9 9 5 5 1014.7 - 0.0
04/01:00am 21.8 20.8 13.5 59 4.8 ESE 11 13 6 7 1014.6 - 0.0
04/12:30am 21.8 21.9 15.4 67 3.8 SE 9 13 5 7 1014.5 - 0.0
04/12:00am 20.0 21.2 17.4 85 1.6 SE 7 9 4 5 1014.6 1014.4 0.0
 
Date/Time
CST
Temp
°C
App
Temp
°C
Dew
Point
Rel
Hum
%
Delta-T
°C
Wind Press
QNH
hPa
Press
MSL
hPa
Rain
since 9 am
mm
Dir
 
Spd
km/h
Gust
km/h
Spd
kts
Gust
kts
03/11:30pm 20.2 20.6 17.3 83 1.8 S 11 11 6 6 1014.7 - 0.0
03/11:00pm 21.3 22.3 17.7 80 2.2 S 9 11 5 6 1014.8 - 0.0
03/10:30pm 22.2 23.5 17.5 74 2.9 S 7 9 4 5 1014.9 - 0.0
03/10:00pm 22.0 23.3 17.6 76 2.7 S 7 9 4 5 1014.6 - 0.0
03/09:00pm 22.9 24.0 18.1 74 3.0 ENE 9 9 5 5 1014.0 1013.8 0.0
03/08:30pm 23.3 24.6 18.4 74 3.1 ENE 9 11 5 6 1013.7 - 0.0
03/08:00pm 23.9 25.2 18.5 72 3.4 NE 9 13 5 7 1013.3 - 0.0
03/07:00pm 25.3 25.3 18.2 64 4.5 NNE 15 19 8 10 1012.8 - 0.0
03/06:30pm 26.2 25.9 18.2 61 5.1 N 17 19 9 10 1012.6 - 0.0
03/06:00pm 27.3 26.3 17.6 55 6.1 N 19 24 10 13 1012.1 1011.9 0.0
03/05:30pm 28.2 27.1 17.4 52 6.8 N 19 22 10 12 1011.9 - 0.0
03/05:00pm 30.7 29.6 16.3 42 9.0 N 17 24 9 13 1011.9 - 0.0
03/04:30pm 31.5 27.4 8.8 24 12.7 ESE 20 30 11 16 1011.8 - 0.0
03/04:00pm 31.1 28.0 8.9 25 12.4 ESE 15 24 8 13 1011.8 - 0.0
03/03:30pm 30.3 26.6 10.3 29 11.4 ESE 20 30 11 16 1012.1 - 0.0
03/03:00pm 31.4 28.4 10.5 27 12.0 ESE 17 26 9 14 1012.5 1012.3 0.0
03/02:30pm 30.9 27.0 10.7 28 11.6 E 22 30 12 16 1012.9 - 0.0
03/02:00pm 30.7 26.3 10.4 28 11.6 E 24 33 13 18 1013.4 - 0.0
03/01:30pm 30.9 27.0 12.0 31 11.1 E 24 39 13 21 1013.9 - 0.0
03/01:00pm 30.0 25.5 11.5 32 10.7 ESE 26 37 14 20 1014.6 - 0.0
03/12:30pm 30.0 25.2 11.8 32 10.6 E 28 33 15 18 1014.9 - 0.0
03/12:00pm 29.3 25.1 12.4 35 9.9 E 26 35 14 19 1015.6 1015.4 0.0
03/11:30am 28.3 23.6 13.2 39 8.9 E 30 39 16 21 1016.1 - 0.0
03/11:00am 28.7 24.0 13.1 38 9.2 E 30 37 16 20 1016.2 - 0.0
03/10:30am 27.2 22.6 13.5 42 8.1 ESE 30 37 16 20 1016.5 - 0.0
03/10:00am 26.9 24.6 14.2 45 7.6 ESE 19 24 10 13 1016.6 - 0.0
03/09:30am 25.5 23.0 14.2 49 6.7 SE 20 30 11 16 1016.6 - 0.0
03/09:00am 25.4 23.3 14.7 51 6.4 ESE 19 24 10 13 1016.8 1016.7 0.0
03/08:30am 24.6 23.3 14.9 54 5.8 ESE 15 20 8 11 1016.5 - 0.0
03/08:00am 23.3 22.4 15.8 62 4.5 ESE 15 19 8 10 1016.4 - 0.0
03/07:30am 23.2 22.2 15.5 62 4.6 ESE 15 17 8 9 1016.0 - 0.0
03/07:00am 23.3 22.1 15.1 60 4.9 E 15 17 8 9 1015.7 - 0.0
03/06:30am 23.6 22.5 15.3 59 5.0 E 15 17 8 9 1015.4 - 0.0
03/06:00am 23.3 22.5 16.0 63 4.4 ESE 15 19 8 10 1015.3 1015.1 0.0
03/05:30am 22.2 22.7 17.5 74 2.9 ESE 11 13 6 7 1015.1 - 0.0
03/05:00am 21.7 21.8 17.5 77 2.6 SE 13 15 7 8 1015.0 - 0.0
03/04:30am 21.7 22.1 18.2 80 2.2 SSE 13 15 7 8 1015.1 - 0.0
03/04:00am 22.1 22.9 19.1 83 1.9 SSE 13 15 7 8 1015.2 - 0.0
03/03:30am 22.3 24.3 20.0 87 1.5 SSE 9 11 5 6 1015.2 - 0.0
03/03:00am 22.7 24.4 20.1 85 1.7 S 11 13 6 7 1015.4 1015.2 0.0
03/02:30am 23.1 25.3 19.7 81 2.2 S 7 9 4 5 1015.7 - 0.0
03/02:00am 23.2 25.7 19.8 81 2.2 S 6 11 3 6 1015.8 - 0.0
03/01:30am 23.8 26.0 19.6 77 2.7 SW 7 11 4 6 1016.0 - 0.0
03/01:00am 23.4 25.2 19.5 79 2.5 SSW 9 9 5 5 1015.9 - 0.0
03/12:30am 23.0 24.1 18.9 78 2.6 S 11 15 6 8 1016.1 - 0.0
03/12:00am 22.7 24.9 19.2 80 2.2 E 6 7 3 4 1015.8 1015.6 0.0
 
Date/Time
CST
Temp
°C
App
Temp
°C
Dew
Point
Rel
Hum
%
Delta-T
°C
Wind Press
QNH
hPa
Press
MSL
hPa
Rain
since 9 am
mm
Dir
 
Spd
km/h
Gust
km/h
Spd
kts
Gust
kts
02/11:30pm 23.2 25.3 19.3 79 2.5 E 7 7 4 4 1015.7 - 0.0
02/11:00pm 23.5 24.6 18.9 75 2.9 NE 11 13 6 7 1015.8 - 0.0
02/10:30pm 24.0 25.2 19.1 74 3.1 NE 11 15 6 8 1015.7 - 0.0
02/10:00pm 24.3 25.2 18.4 69 3.7 NNE 11 15 6 8 1015.7 - 0.0
02/09:30pm 24.2 24.1 16.9 63 4.5 NNE 13 17 7 9 1015.4 - 0.0
02/09:00pm 24.5 24.1 16.1 59 5.1 NE 13 17 7 9 1015.1 1014.9 0.0
02/08:30pm 24.7 24.1 15.6 57 5.5 NE 13 15 7 8 1014.9 - 0.0
02/08:00pm 25.8 25.0 15.2 52 6.4 NNE 13 15 7 8 1014.6 - 0.0
02/07:30pm 26.1 25.3 15.2 51 6.6 NNE 13 15 7 8 1014.2 - 0.0
02/07:00pm 27.0 25.3 14.7 47 7.4 NNE 17 19 9 10 1013.9 - 0.0
02/06:30pm 27.7 25.6 14.8 45 7.8 NE 19 26 10 14 1013.5 - 0.0
02/06:00pm 28.3 26.5 16.0 47 7.6 NNE 20 28 11 15 1013.1 1012.9 0.0
02/05:30pm 29.8 27.7 16.1 43 8.5 NNE 22 32 12 17 1012.8 - 0.0
02/05:00pm 31.2 29.0 14.5 36 10.2 NNE 19 30 10 16 1012.6 - 0.0
02/04:30pm 32.0 27.4 11.0 27 12.2 E 26 35 14 19 1012.5 - 0.0
02/04:00pm 31.8 27.0 11.7 29 11.8 E 28 35 15 19 1012.5 - 0.0
02/03:30pm 31.9 27.2 12.1 29 11.7 ENE 28 37 15 20 1012.7 - 0.0
02/03:00pm 32.2 26.8 12.3 29 11.8 ENE 32 41 17 22 1013.0 1012.8 0.0
02/02:30pm 31.9 26.4 11.8 29 11.8 E 32 43 17 23 1013.4 - 0.0
02/02:00pm 30.9 24.6 11.2 29 11.4 E 35 46 19 25 1014.2 - 0.0
02/01:30pm 31.4 25.7 11.0 28 11.8 E 32 46 17 25 1014.7 - 0.0
02/01:00pm 30.8 24.5 11.1 29 11.4 E 35 44 19 24 1015.3 - 0.0
02/12:30pm 30.7 25.0 11.9 31 11.0 E 33 44 18 24 1015.6 - 0.0
02/12:00pm 30.2 23.9 12.3 33 10.5 E 37 52 20 28 1016.1 1015.9 0.0
02/11:36am 29.2 23.0 12.7 36 9.7 E 37 56 20 30 1016.7 - 0.0
02/11:30am 29.6 22.8 13.1 36 9.8 ESE 41 56 22 30 1016.9 - 0.0
02/11:00am 28.9 23.5 13.9 39 9.0 E 35 48 19 26 1017.2 - 0.0
02/10:30am 27.7 22.9 14.6 44 7.9 ESE 33 41 18 22 1017.5 - 0.0
02/10:00am 26.4 22.1 15.5 51 6.6 ESE 32 39 17 21 1017.8 - 0.0
02/09:30am 26.2 22.3 15.5 51 6.5 ESE 30 43 16 23 1017.9 - 0.0
02/09:00am 25.8 23.2 16.0 54 6.0 ESE 24 32 13 17 1017.7 1017.6 Trace
02/08:30am 24.8 23.6 17.4 63 4.6 ESE 20 26 11 14 1017.6 - 0.0
02/08:00am 24.0 23.4 17.6 67 4.0 ESE 17 22 9 12 1017.3 - 0.0
02/07:30am 23.8 23.6 17.7 68 3.8 ESE 15 17 8 9 1017.0 - 0.0
02/07:00am 23.8 24.0 17.7 68 3.8 ESE 13 17 7 9 1016.7 - 0.0
02/06:30am 23.2 24.4 18.3 74 3.1 E 9 13 5 7 1016.6 - 0.0
02/06:00am 23.6 24.8 18.2 71 3.4 E 9 11 5 6 1016.4 1016.2 0.0
02/05:30am 23.7 24.8 17.9 70 3.6 E 9 11 5 6 1016.3 - 0.0
02/05:00am 23.8 24.4 17.7 68 3.8 E 11 13 6 7 1016.2 - 0.0
02/04:30am 24.2 24.3 17.4 65 4.2 E 13 15 7 8 1016.1 - 0.0
02/04:00am 24.5 23.7 17.2 63 4.5 E 17 24 9 13 1016.3 - 0.0
02/03:30am 24.5 24.1 17.2 63 4.5 E 15 19 8 10 1016.3 - 0.0
02/03:00am 24.6 23.5 17.4 64 4.5 SE 19 26 10 14 1016.3 1016.1 0.0
02/02:30am 24.5 22.1 17.4 64 4.4 E 26 33 14 18 1016.6 - 0.0
02/02:00am 23.9 24.1 17.6 68 3.9 E 13 17 7 9 1016.6 - 0.0
02/01:30am 24.2 24.5 18.0 68 3.9 E 13 17 7 9 1016.5 - 0.0
02/01:00am 24.2 24.0 17.6 66 4.1 ENE 15 19 8 10 1016.7 - 0.0
02/12:30am 24.3 23.8 17.7 66 4.1 ENE 17 20 9 11 1016.8 - 0.0
02/12:00am 24.7 23.5 17.5 64 4.5 ENE 20 28 11 15 1016.9 1016.8 0.0
 
Date/Time
CST
Temp
°C
App
Temp
°C
Dew
Point
Rel
Hum
%
Delta-T
°C
Wind Press
QNH
hPa
Press
MSL
hPa
Rain
since 9 am
mm
Dir
 
Spd
km/h
Gust
km/h
Spd
kts
Gust
kts
01/11:30pm 24.5 24.4 17.8 66 4.2 E 15 19 8 10 1016.9 - 0.0
01/11:00pm 22.6 24.7 19.3 81 2.1 ESE 7 9 4 5 1016.9 - 0.0
01/10:30pm 23.1 25.3 19.2 79 2.5 S 6 7 3 4 1016.6 - 0.0
01/10:00pm 24.0 25.8 19.5 76 2.9 SSW 9 11 5 6 1016.6 - 0.0
01/09:30pm 24.9 26.5 19.1 70 3.7 SSW 9 11 5 6 1016.3 - 0.0
01/09:00pm 25.0 26.6 19.1 70 3.8 WSW 9 11 5 6 1015.9 1015.7 0.0
01/08:30pm 24.2 26.5 19.4 74 3.1 NW 6 7 3 4 1015.7 - 0.0
01/08:00pm 25.2 27.5 19.4 70 3.7 NNW 6 9 3 5 1015.2 - 0.0
01/07:30pm 25.6 27.2 19.2 67 4.1 W 9 13 5 7 1014.7 - 0.0
01/07:00pm 26.2 27.7 18.9 64 4.7 W 9 11 5 6 1014.4 - 0.0
01/06:30pm 27.3 28.1 17.3 54 6.3 NW 9 11 5 6 1014.1 - 0.0
01/06:00pm 27.7 27.5 16.8 51 6.8 N 13 15 7 8 1013.9 1013.7 0.0
01/05:30pm 28.8 28.2 16.6 47 7.6 N 15 19 8 10 1013.7 - 0.0
01/05:00pm 29.6 29.0 15.7 43 8.6 NNW 13 19 7 10 1013.5 - 0.0
01/04:30pm 29.9 28.6 15.7 42 8.8 NNW 17 20 9 11 1013.5 - 0.0

Other Formats:

Comma delimited format used in spreadsheet applications
http://www.bom.gov.au/fwo/IDD60801/IDD60801.94120.axf

JavaScript Object Notation format (JSON) in row-major order
http://www.bom.gov.au/fwo/IDD60801/IDD60801.94120.json